Time;durP1;ratioP1;P1;durP2;ratioP2;P2;SDS_P1;SDS_P2;PMS_P1;PMS_P2;Temp;Humidity;BMP_temperature;BMP_pressure;BME280_temperature;BME280_humidity;BME280_pressure;Samples;Min_cycle;Max_cycle;Signal;HPM_P1;HPM_P2
2023/09/05 00:02:04;;;;;;;1.48;1.10;;;;;;;16.80;67.35;94025.56;5001324;28;20654;-79
2023/09/05 00:04:29;;;;;;;2.60;1.38;;;;;;;16.85;67.07;94036.06;5018611;28;20029;-79
2023/09/05 00:06:56;;;;;;;3.30;1.40;;;;;;;16.89;67.12;94036.94;5019674;28;20128;-78
2023/09/05 00:09:22;;;;;;;1.38;1.27;;;;;;;16.82;67.28;94025.25;5019829;28;20607;-77
2023/09/05 00:11:48;;;;;;;1.98;1.20;;;;;;;16.71;66.30;94020.38;5000551;28;20193;-78
2023/09/05 00:14:17;;;;;;;1.85;1.00;;;;;;;16.74;66.67;94032.31;5018732;28;20045;-77
2023/09/05 00:16:42;;;;;;;4.10;1.48;;;;;;;16.80;66.45;94006.78;5018002;28;20033;-79
2023/09/05 00:19:08;;;;;;;1.92;0.93;;;;;;;16.93;66.50;94010.91;5017990;28;20073;-77
2023/09/05 00:21:33;;;;;;;2.75;1.30;;;;;;;16.96;66.34;94004.88;5017880;28;20029;-78
2023/09/05 00:24:27;;;;;;;1.48;1.20;;;;;;;17.03;66.39;94015.75;5020100;28;20075;-76
2023/09/05 00:26:54;;;;;;;1.90;1.40;;;;;;;17.06;66.66;94015.06;4993692;28;20045;-78
2023/09/05 00:29:19;;;;;;;2.78;1.20;;;;;;;16.88;66.73;93984.31;5019091;28;20056;-77
2023/09/05 00:31:46;;;;;;;2.08;1.00;;;;;;;17.06;66.48;94019.69;5018424;28;20675;-80
2023/09/05 00:34:13;;;;;;;1.52;1.08;;;;;;;16.90;66.53;93995.50;5017915;28;20440;-79
2023/09/05 00:36:39;;;;;;;1.70;1.20;;;;;;;16.79;66.99;94009.81;5020238;28;20044;-77
2023/09/05 00:39:05;;;;;;;4.10;1.10;;;;;;;16.95;66.61;94002.53;5019505;28;20120;-78
2023/09/05 00:41:31;;;;;;;1.27;1.00;;;;;;;16.98;66.35;93989.16;5019849;28;20394;-78
2023/09/05 00:43:56;;;;;;;5.15;1.10;;;;;;;16.87;66.04;93969.31;5018717;28;20037;-78
2023/09/05 00:46:22;;;;;;;3.00;1.50;;;;;;;16.91;66.25;94007.81;5019816;28;20025;-78
2023/09/05 00:48:47;;;;;;;1.85;1.00;;;;;;;16.88;65.93;93992.38;5001114;28;20947;-77
2023/09/05 00:51:13;;;;;;;2.80;1.00;;;;;;;16.89;65.41;93990.47;5017423;28;20037;-79
2023/09/05 00:53:39;;;;;;;1.48;1.23;;;;;;;16.90;65.61;93982.06;5017312;28;20052;-76
2023/09/05 00:56:05;;;;;;;1.40;1.30;;;;;;;16.74;65.51;93983.97;5015867;28;20143;-79
2023/09/05 00:58:30;;;;;;;2.35;1.48;;;;;;;16.97;65.05;93990.28;5001797;28;20145;-78
2023/09/05 01:00:56;;;;;;;2.28;1.33;;;;;;;16.89;64.98;93991.25;5018388;28;20128;-78
2023/09/05 01:03:22;;;;;;;1.50;1.20;;;;;;;16.91;64.85;93980.94;5016967;28;20038;-77
2023/09/05 01:05:55;;;;;;;2.67;1.20;;;;;;;16.89;64.75;93972.44;5018233;28;20041;-77
2023/09/05 01:08:29;;;;;;;2.15;1.48;;;;;;;16.97;65.09;93995.66;5017772;28;20025;-78
2023/09/05 01:11:08;;;;;;;2.77;1.43;;;;;;;16.99;65.03;93979.97;5017062;28;20032;-77
2023/09/05 01:13:37;;;;;;;1.90;1.50;;;;;;;16.85;65.03;93966.22;5019339;28;20263;-77
2023/09/05 01:16:03;;;;;;;2.20;1.55;;;;;;;16.93;65.37;93984.06;5016510;28;20076;-79
2023/09/05 01:18:33;;;;;;;1.40;1.30;;;;;;;16.92;65.59;94001.28;5017299;28;20045;-77
2023/09/05 01:21:17;;;;;;;3.30;1.45;;;;;;;17.00;65.27;94005.72;5018238;28;20045;-78
2023/09/05 01:24:13;;;;;;;1.70;1.35;;;;;;;16.93;65.19;94004.75;4999884;28;20121;-78
2023/09/05 01:26:40;;;;;;;1.50;1.40;;;;;;;16.77;65.83;94004.75;4985505;28;20037;-78
2023/09/05 01:29:08;;;;;;;2.90;1.88;;;;;;;16.75;65.63;93990.91;4999034;28;20500;-78
2023/09/05 01:31:34;;;;;;;1.90;1.50;;;;;;;16.87;65.42;93988.13;5013499;28;21299;-79
2023/09/05 01:33:59;;;;;;;1.55;1.42;;;;;;;16.78;65.54;93992.91;5018175;28;20033;-78
2023/09/05 01:36:25;;;;;;;1.77;1.50;;;;;;;16.86;65.67;93993.88;4997054;28;20033;-78
2023/09/05 01:38:50;;;;;;;2.20;1.52;;;;;;;16.73;65.34;93966.31;5016630;28;20123;-79
2023/09/05 01:41:16;;;;;;;1.90;1.70;;;;;;;16.88;64.53;93970.88;4999434;28;20029;-77
2023/09/05 01:43:41;;;;;;;2.70;2.22;;;;;;;16.92;64.93;93987.09;5017384;28;20024;-77
2023/09/05 01:46:07;;;;;;;2.88;1.77;;;;;;;17.00;64.89;93988.81;5011211;28;20079;-77
2023/09/05 01:48:32;;;;;;;3.50;1.98;;;;;;;16.89;64.99;93972.44;5016295;28;20412;-79
2023/09/05 01:50:58;;;;;;;2.75;2.28;;;;;;;16.89;65.18;93977.81;5017701;28;20554;-78
2023/09/05 01:53:24;;;;;;;2.60;2.40;;;;;;;16.88;64.89;93973.56;5016903;28;20045;-77
2023/09/05 01:55:49;;;;;;;3.00;1.85;;;;;;;16.92;64.74;93977.13;5016339;28;20025;-79
2023/09/05 01:58:15;;;;;;;2.60;2.40;;;;;;;16.83;65.02;93979.22;4995857;28;20556;-78
2023/09/05 02:00:40;;;;;;;3.03;2.53;;;;;;;16.39;65.13;93922.16;5014557;28;20034;-78
2023/09/05 02:03:06;;;;;;;3.17;2.78;;;;;;;16.78;65.37;93990.22;5017669;28;20060;-78
2023/09/05 02:05:31;;;;;;;3.97;3.58;;;;;;;16.59;65.74;93984.75;4998428;28;20041;-79
2023/09/05 02:07:57;;;;;;;4.00;2.97;;;;;;;16.64;65.62;93996.03;5019008;28;20034;-79
2023/09/05 02:10:22;;;;;;;4.30;3.80;;;;;;;16.56;65.64;93988.94;4997222;28;20036;-78
2023/09/05 02:12:49;;;;;;;3.78;3.47;;;;;;;16.75;65.22;93996.28;5017051;28;20042;-78
2023/09/05 02:15:14;;;;;;;4.53;3.50;;;;;;;16.71;65.20;93992.75;5015792;28;20124;-77
2023/09/05 02:17:40;;;;;;;5.35;4.85;;;;;;;16.70;65.15;93991.19;5015631;28;20038;-78
2023/09/05 02:20:06;;;;;;;4.78;4.28;;;;;;;16.83;65.03;94003.38;5018070;28;20115;-78
2023/09/05 02:22:31;;;;;;;7.45;4.80;;;;;;;16.79;65.32;94009.81;4993483;28;20036;-79
2023/09/05 02:24:57;;;;;;;7.10;4.32;;;;;;;16.70;65.52;94008.06;4994888;28;20049;-79
2023/09/05 02:27:22;;;;;;;7.43;4.72;;;;;;;16.68;65.04;94004.94;5014396;28;20036;-78
2023/09/05 02:29:49;;;;;;;4.43;4.03;;;;;;;16.59;64.80;93984.75;5018595;28;20061;-78
2023/09/05 02:32:17;;;;;;;4.72;4.32;;;;;;;16.77;65.23;94008.22;4997078;28;20116;-78
2023/09/05 02:34:43;;;;;;;5.75;4.65;;;;;;;16.68;65.54;94004.94;4999554;28;20029;-80
2023/09/05 02:37:08;;;;;;;5.75;5.20;;;;;;;16.75;65.02;93999.75;5016493;28;20592;-79
2023/09/05 02:39:33;;;;;;;5.43;4.88;;;;;;;16.82;65.12;94009.88;5017114;28;20610;-77
2023/09/05 02:41:59;;;;;;;5.88;5.22;;;;;;;16.75;65.37;94012.41;5017072;28;20084;-80
2023/09/05 02:44:24;;;;;;;8.05;5.15;;;;;;;16.81;65.19;94008.34;5016034;28;20654;-77
2023/09/05 02:46:51;;;;;;;6.00;5.50;;;;;;;16.72;65.12;93999.69;5018356;28;20017;-79
2023/09/05 02:49:17;;;;;;;6.90;5.57;;;;;;;16.69;65.67;94005.72;5014937;28;20029;-77
2023/09/05 02:51:42;;;;;;;6.38;5.78;;;;;;;16.65;64.82;93996.81;5017023;28;20038;-78
2023/09/05 02:54:07;;;;;;;6.47;5.88;;;;;;;16.54;65.13;93969.69;4997240;28;20409;-80
2023/09/05 02:56:33;;;;;;;6.18;5.10;;;;;;;16.57;64.65;93969.03;5017009;28;20033;-77
2023/09/05 02:58:58;;;;;;;6.93;6.25;;;;;;;16.77;64.92;93991.34;4998208;28;20121;-77
2023/09/05 03:01:24;;;;;;;6.40;5.80;;;;;;;16.82;64.29;93993.75;4998308;28;20022;-78
2023/09/05 03:03:49;;;;;;;6.95;6.25;;;;;;;16.65;64.56;93999.50;5016203;28;20391;-80
2023/09/05 03:06:16;;;;;;;8.35;5.93;;;;;;;16.76;64.59;94000.53;5017530;28;20049;-78
2023/09/05 03:08:44;;;;;;;7.75;6.32;;;;;;;16.72;64.60;94016.53;4990003;28;20037;-78
2023/09/05 03:11:13;;;;;;;6.78;6.07;;;;;;;16.69;64.57;94009.19;4993911;28;20045;-77
2023/09/05 03:13:38;;;;;;;6.70;6.10;;;;;;;16.91;64.44;94012.41;5018207;28;20026;-78
2023/09/05 03:16:03;;;;;;;8.30;7.28;;;;;;;16.93;64.27;94005.53;5017575;28;21045;-78
2023/09/05 03:18:29;;;;;;;10.15;6.68;;;;;;;16.77;64.23;94001.31;5019045;28;20114;-78
2023/09/05 03:20:54;;;;;;;7.15;6.38;;;;;;;16.73;64.49;94020.78;5020637;28;20658;-79
2023/09/05 03:23:20;;;;;;;7.72;6.18;;;;;;;16.84;64.15;94025.66;5020346;28;20568;-78
2023/09/05 03:25:45;;;;;;;6.72;6.13;;;;;;;16.91;64.31;94029.31;5017863;28;20075;-78
2023/09/05 03:28:12;;;;;;;9.52;6.47;;;;;;;16.97;64.06;94032.47;5019371;28;20025;-78
2023/09/05 03:30:41;;;;;;;7.38;6.35;;;;;;;17.05;63.59;94029.66;5021796;28;20079;-79
2023/09/05 03:33:06;;;;;;;8.70;6.47;;;;;;;17.06;63.83;94047.31;5017925;28;20029;-77
2023/09/05 03:35:33;;;;;;;8.75;6.50;;;;;;;16.95;63.80;94030.16;5019569;28;20488;-78
2023/09/05 03:37:58;;;;;;;7.80;6.47;;;;;;;17.02;63.73;94051.03;5018137;28;20025;-77
2023/09/05 03:40:24;;;;;;;10.80;6.28;;;;;;;16.97;63.79;94043.22;5020273;28;20022;-76
2023/09/05 03:42:49;;;;;;;6.47;5.78;;;;;;;16.95;63.51;94042.81;5018389;28;20069;-79
2023/09/05 03:45:15;;;;;;;7.90;6.40;;;;;;;16.95;64.09;94054.34;5001511;28;20044;-78
2023/09/05 03:47:40;;;;;;;6.97;6.20;;;;;;;17.02;63.81;94051.03;5019439;28;20111;-78
2023/09/05 03:50:07;;;;;;;10.57;6.38;;;;;;;16.94;63.00;94041.25;5017631;28;21054;-79
2023/09/05 03:52:32;;;;;;;7.15;6.45;;;;;;;16.95;63.56;94045.50;4993681;28;20032;-79
2023/09/05 03:54:58;;;;;;;8.00;6.25;;;;;;;16.83;63.78;94049.03;5018818;28;20041;-77
2023/09/05 03:57:23;;;;;;;8.98;7.10;;;;;;;16.90;63.88;94043.06;5000573;28;20060;-78
2023/09/05 03:59:49;;;;;;;7.38;6.70;;;;;;;16.91;63.71;94050.81;5020304;28;20120;-78
2023/09/05 04:02:14;;;;;;;7.65;6.57;;;;;;;16.98;63.64;94042.91;5001088;28;20033;-77
2023/09/05 04:04:40;;;;;;;10.00;7.63;;;;;;;17.09;63.96;94043.16;5017141;28;20035;-77
2023/09/05 04:07:06;;;;;;;7.57;6.22;;;;;;;17.12;63.94;94045.91;5000549;28;20517;-77
2023/09/05 04:09:32;;;;;;;8.32;7.10;;;;;;;17.02;63.84;94054.50;5015917;28;20037;-79
2023/09/05 04:11:57;;;;;;;8.73;6.32;;;;;;;16.97;63.74;94033.28;5015936;28;20051;-78
2023/09/05 04:14:22;;;;;;;10.25;8.73;;;;;;;16.66;63.78;94017.16;5017329;28;20034;-77
2023/09/05 04:16:48;;;;;;;12.50;9.65;;;;;;;16.92;63.52;94052.34;5017315;28;20032;-78
2023/09/05 04:19:13;;;;;;;8.77;7.05;;;;;;;17.04;63.49;94057.63;5001203;28;20417;-77
2023/09/05 04:21:39;;;;;;;9.60;7.90;;;;;;;16.79;63.94;94064.31;5001640;28;20041;-79
2023/09/05 04:24:05;;;;;;;11.35;8.30;;;;;;;16.73;64.10;94060.31;5016183;28;20045;-78
2023/09/05 04:26:33;;;;;;;9.23;8.30;;;;;;;16.88;64.01;94051.47;4998786;28;20030;-78
2023/09/05 04:28:59;;;;;;;11.80;8.48;;;;;;;16.99;63.26;94052.53;5016358;28;20045;-79
2023/09/05 04:31:24;;;;;;;10.80;8.85;;;;;;;16.97;63.32;94044.00;5017259;28;20026;-79
2023/09/05 04:33:50;;;;;;;9.52;8.52;;;;;;;16.88;63.77;94062.22;5016637;28;20030;-78
2023/09/05 04:36:15;;;;;;;10.13;9.10;;;;;;;16.97;63.42;94054.75;5018217;28;20065;-77
2023/09/05 04:38:45;;;;;;;10.88;9.70;;;;;;;17.11;63.06;94049.72;5000788;28;20042;-80
2023/09/05 04:41:11;;;;;;;11.00;9.70;;;;;;;17.06;62.87;94051.91;5017290;28;20494;-78
2023/09/05 04:43:37;;;;;;;11.30;9.48;;;;;;;17.13;62.92;94052.88;5017401;28;20078;-77
2023/09/05 04:46:05;;;;;;;10.93;9.82;;;;;;;16.96;63.16;94053.22;5018056;28;20038;-79
2023/09/05 04:48:31;;;;;;;10.48;9.48;;;;;;;16.74;63.80;94046.53;4999798;28;20037;-79
2023/09/05 04:50:58;;;;;;;11.07;9.25;;;;;;;16.99;63.41;94052.53;5017057;28;20044;-76
2023/09/05 04:53:23;;;;;;;13.73;10.25;;;;;;;17.05;63.50;94045.75;5018227;28;20049;-77
2023/09/05 04:55:51;;;;;;;14.48;9.27;;;;;;;17.05;63.31;94035.03;4999646;28;20021;-79
2023/09/05 04:58:17;;;;;;;11.75;9.55;;;;;;;17.10;63.04;94036.66;5018768;28;20525;-79
2023/09/05 05:00:43;;;;;;;11.68;10.27;;;;;;;17.09;63.20;94035.88;5017336;28;20033;-77
2023/09/05 05:03:09;;;;;;;12.52;10.23;;;;;;;17.25;63.32;94051.25;5015114;28;20033;-78
2023/09/05 05:05:34;;;;;;;10.77;9.68;;;;;;;17.26;63.32;94047.44;5019415;28;20048;-77
2023/09/05 05:08:00;;;;;;;15.10;9.32;;;;;;;17.14;63.39;94043.72;4998451;28;20037;-77
2023/09/05 05:10:25;;;;;;;12.02;10.73;;;;;;;17.16;63.17;94044.13;5017075;28;20032;-77
2023/09/05 05:12:51;;;;;;;15.90;10.65;;;;;;;17.31;63.38;94063.25;5017521;28;20512;-78
2023/09/05 05:15:16;;;;;;;11.85;10.63;;;;;;;17.33;63.69;94067.19;5017428;28;20029;-76
2023/09/05 05:17:41;;;;;;;11.43;10.20;;;;;;;17.19;63.90;94023.84;5000015;28;20095;-77
2023/09/05 05:20:07;;;;;;;11.60;9.95;;;;;;;17.27;63.83;94063.19;5018663;28;20034;-79
2023/09/05 05:22:33;;;;;;;12.07;9.38;;;;;;;17.16;63.49;94052.19;5017091;28;20021;-78
2023/09/05 05:24:59;;;;;;;10.30;9.20;;;;;;;17.36;63.74;94065.69;5016937;28;20045;-79
2023/09/05 05:27:25;;;;;;;13.43;10.68;;;;;;;17.07;64.44;94070.38;5015527;28;20764;-79
2023/09/05 05:29:51;;;;;;;11.48;10.35;;;;;;;17.05;63.66;94053.81;5018570;28;20030;-77
2023/09/05 05:32:16;;;;;;;12.65;11.35;;;;;;;17.05;63.66;94055.72;5016027;28;20060;-77
2023/09/05 05:34:42;;;;;;;11.80;10.52;;;;;;;17.23;63.77;94066.91;5018577;28;20033;-79
2023/09/05 05:37:07;;;;;;;14.40;12.25;;;;;;;16.92;63.91;94056.94;4996974;28;20678;-78
2023/09/05 05:39:33;;;;;;;18.30;11.20;;;;;;;16.93;63.68;94043.16;5017298;28;20111;-79
2023/09/05 05:41:59;;;;;;;12.65;11.35;;;;;;;17.24;63.21;94076.56;5015937;28;20045;-80
2023/09/05 05:44:24;;;;;;;12.95;11.65;;;;;;;16.90;63.94;94080.69;5016091;28;20133;-78
2023/09/05 05:46:50;;;;;;;13.63;11.73;;;;;;;16.75;65.04;94071.50;5015434;28;20095;-79
2023/09/05 05:49:15;;;;;;;13.68;12.13;;;;;;;16.63;65.21;94072.34;5017509;28;20064;-77
2023/09/05 05:51:41;;;;;;;13.60;12.23;;;;;;;16.77;65.28;94074.59;4999997;28;20994;-76
2023/09/05 05:54:07;;;;;;;15.18;12.23;;;;;;;16.66;65.17;94068.97;5017420;28;20413;-79
2023/09/05 05:56:33;;;;;;;14.48;11.55;;;;;;;16.27;66.25;94067.91;5015304;28;20099;-79
2023/09/05 05:58:58;;;;;;;14.80;12.75;;;;;;;16.39;66.74;94075.16;5017015;28;20033;-78
2023/09/05 06:01:23;;;;;;;14.60;12.85;;;;;;;16.26;66.89;94085.13;5015934;28;20401;-77
2023/09/05 06:03:49;;;;;;;13.77;12.18;;;;;;;16.24;67.08;94075.84;4999065;28;20405;-78
2023/09/05 06:06:14;;;;;;;14.30;12.43;;;;;;;15.83;67.42;94072.44;5014279;28;20026;-78
2023/09/05 06:08:40;;;;;;;19.45;13.93;;;;;;;15.83;69.03;94074.31;4997853;28;20033;-77
2023/09/05 06:11:06;;;;;;;15.70;13.43;;;;;;;16.28;67.54;94074.06;5016583;28;20489;-78
2023/09/05 06:13:31;;;;;;;18.17;13.30;;;;;;;16.12;67.29;94074.00;5015730;28;20422;-79
2023/09/05 06:15:57;;;;;;;15.80;14.10;;;;;;;15.64;69.11;94048.13;5015405;28;20099;-78
2023/09/05 06:18:23;;;;;;;16.70;14.88;;;;;;;15.88;68.68;94074.88;5016301;28;20037;-77
2023/09/05 06:20:48;;;;;;;19.35;14.48;;;;;;;16.14;68.55;94082.47;5014691;28;20489;-77
2023/09/05 06:23:14;;;;;;;16.88;14.52;;;;;;;16.27;67.80;94070.59;5016248;28;20045;-79
2023/09/05 06:25:39;;;;;;;16.52;14.50;;;;;;;16.35;67.33;94073.50;5015996;28;20032;-78
2023/09/05 06:28:05;;;;;;;17.67;13.48;;;;;;;16.17;67.02;94065.72;5015583;28;20037;-79
2023/09/05 06:30:30;;;;;;;18.17;14.20;;;;;;;16.03;67.80;94065.31;5014456;28;20094;-80
2023/09/05 06:32:56;;;;;;;20.98;14.27;;;;;;;16.26;67.71;94078.97;5020504;28;20132;-78
2023/09/05 06:35:21;;;;;;;20.10;14.27;;;;;;;16.25;67.15;94083.56;4999671;28;20428;-79
2023/09/05 06:37:55;;;;;;;26.83;14.95;;;;;;;16.33;66.51;94078.44;5003180;28;20496;-76
2023/09/05 06:40:21;;;;;;;20.08;13.10;;;;;;;16.29;66.60;94094.38;5001756;28;20056;-77
2023/09/05 06:42:47;;;;;;;16.45;14.40;;;;;;;16.27;67.01;94086.69;4992637;28;20042;-77
2023/09/05 06:45:12;;;;;;;15.75;13.75;;;;;;;16.08;67.51;94099.97;5013406;28;20041;-78
2023/09/05 06:47:38;;;;;;;17.27;13.65;;;;;;;16.04;68.26;94109.00;5017024;28;20037;-78
2023/09/05 06:50:07;;;;;;;16.38;14.43;;;;;;;15.94;68.77;94101.47;5015436;28;20536;-78
2023/09/05 06:52:32;;;;;;;18.52;14.45;;;;;;;15.88;68.37;94085.59;5013953;28;20029;-76
2023/09/05 06:54:58;;;;;;;15.35;12.35;;;;;;;16.28;67.65;94098.22;4996185;28;20030;-77
2023/09/05 06:57:24;;;;;;;16.40;14.02;;;;;;;16.03;68.85;94094.84;5013406;28;20068;-78
2023/09/05 06:59:50;;;;;;;19.33;13.60;;;;;;;16.20;68.33;94097.22;4993867;28;20047;-76
2023/09/05 07:02:16;;;;;;;17.85;13.52;;;;;;;16.07;68.86;94098.41;4990808;28;20037;-78
2023/09/05 07:04:41;;;;;;;15.63;13.93;;;;;;;16.06;68.73;94096.84;4993578;28;20025;-77
2023/09/05 07:07:08;;;;;;;26.25;14.77;;;;;;;16.26;68.03;94095.09;4997399;28;20431;-77
2023/09/05 07:09:34;;;;;;;14.65;12.70;;;;;;;16.26;68.00;94095.09;5016304;28;20493;-77
2023/09/05 07:12:00;;;;;;;16.90;13.25;;;;;;;16.16;67.65;94108.97;5016342;28;20037;-77
2023/09/05 07:14:25;;;;;;;13.90;12.35;;;;;;;16.14;67.99;94106.63;5013403;28;21198;-77
2023/09/05 07:16:51;;;;;;;15.15;12.60;;;;;;;16.36;67.16;94109.94;5016006;28;20021;-77
2023/09/05 07:19:17;;;;;;;15.52;11.93;;;;;;;16.47;67.45;94132.50;5013821;28;20174;-78
2023/09/05 07:21:43;;;;;;;15.10;12.30;;;;;;;16.64;66.53;94116.88;5016647;28;20578;-78
2023/09/05 07:24:13;;;;;;;16.13;12.05;;;;;;;16.71;66.77;94121.66;5013196;28;20040;-77
2023/09/05 07:26:39;;;;;;;15.88;12.30;;;;;;;16.77;66.22;94127.56;4990502;28;20038;-78
2023/09/05 07:29:12;;;;;;;12.75;11.55;;;;;;;16.38;66.71;94135.31;5014247;28;20037;-77
2023/09/05 07:31:38;;;;;;;116.72;22.58;;;;;;;16.34;66.79;94112.97;4989055;28;20571;-78
2023/09/05 07:34:04;;;;;;;33.90;14.05;;;;;;;16.37;66.76;94122.25;4995169;28;20037;-79
2023/09/05 07:36:31;;;;;;;15.38;13.13;;;;;;;16.18;67.64;94142.41;5012510;28;20132;-80
2023/09/05 07:38:58;;;;;;;13.85;12.15;;;;;;;16.14;67.67;94144.19;5015844;28;20041;-79
2023/09/05 07:41:24;;;;;;;16.85;12.43;;;;;;;16.29;66.67;94143.47;5012377;28;20052;-79
2023/09/05 07:43:49;;;;;;;22.60;11.98;;;;;;;16.36;66.30;94160.94;5014237;28;20038;-79
2023/09/05 07:46:15;;;;;;;24.02;13.43;;;;;;;16.19;67.51;94159.28;5015032;28;20048;-78
2023/09/05 07:48:40;;;;;;;14.23;11.75;;;;;;;16.24;67.31;94149.09;5015247;28;20122;-78
2023/09/05 07:51:07;;;;;;;14.52;11.65;;;;;;;16.11;67.54;94152.94;5012082;28;20041;-78
2023/09/05 07:53:37;;;;;;;13.52;11.48;;;;;;;16.23;67.87;94147.53;5014533;28;20037;-76
2023/09/05 07:56:03;;;;;;;17.05;12.10;;;;;;;16.30;67.31;94136.22;4990503;28;20401;-76
2023/09/05 07:58:29;;;;;;;16.42;11.38;;;;;;;16.53;67.02;94144.53;4987788;28;20025;-77
2023/09/05 08:00:55;;;;;;;13.65;11.63;;;;;;;16.39;67.21;94154.88;5020875;28;20484;-77
2023/09/05 08:03:21;;;;;;;14.43;12.10;;;;;;;16.35;68.13;94148.63;5023516;28;20038;-76
2023/09/05 08:05:48;;;;;;;14.95;12.85;;;;;;;16.18;67.94;94153.13;5023837;28;20041;-78
2023/09/05 08:08:14;;;;;;;14.30;11.63;;;;;;;16.17;68.25;94148.13;5018440;28;20045;-77
2023/09/05 08:10:41;;;;;;;15.90;11.15;;;;;;;16.19;67.10;94119.81;4999879;28;20527;-77
2023/09/05 08:13:07;;;;;;;17.08;12.00;;;;;;;16.37;66.67;94141.03;5016790;28;20048;-77
2023/09/05 08:15:33;;;;;;;14.70;12.13;;;;;;;16.43;66.75;94142.38;4999495;28;20454;-77
2023/09/05 08:17:58;;;;;;;14.48;11.18;;;;;;;16.44;66.97;94162.69;5009381;28;20045;-77
2023/09/05 08:20:24;;;;;;;16.52;11.30;;;;;;;16.40;66.60;94162.59;5011248;28;20499;-79
2023/09/05 08:22:49;;;;;;;12.85;10.85;;;;;;;16.09;68.27;94160.53;5009768;28;20033;-79
2023/09/05 08:25:18;;;;;;;16.73;11.60;;;;;;;16.29;67.55;94146.16;5008491;28;20026;-79
2023/09/05 08:27:45;;;;;;;17.75;12.13;;;;;;;16.22;67.96;94148.66;5008393;28;20045;-79
2023/09/05 08:30:11;;;;;;;15.43;11.60;;;;;;;16.44;67.29;94142.00;5010355;28;20033;-79
2023/09/05 08:32:38;;;;;;;16.20;12.48;;;;;;;16.56;67.03;94147.34;5007538;28;20052;-79
2023/09/05 08:35:09;;;;;;;15.98;11.23;;;;;;;16.64;66.58;94157.16;5011316;28;20470;-80
2023/09/05 08:37:35;;;;;;;13.27;11.65;;;;;;;16.54;66.63;94159.53;5010631;28;20025;-79
2023/09/05 08:40:01;;;;;;;15.52;12.65;;;;;;;16.65;67.19;94165.97;5010067;28;20427;-79
2023/09/05 08:42:31;;;;;;;13.13;10.70;;;;;;;16.69;66.27;94161.50;5008436;28;20565;-78
2023/09/05 08:44:58;;;;;;;17.23;10.93;;;;;;;17.00;65.95;94156.19;5009677;28;20354;-80
2023/09/05 08:47:26;;;;;;;13.05;9.98;;;;;;;17.09;65.28;94172.16;5010642;28;20048;-78
2023/09/05 08:49:52;;;;;;;15.35;11.70;;;;;;;16.51;66.05;94176.34;5009623;28;20604;-77
2023/09/05 08:52:20;;;;;;;13.50;11.13;;;;;;;16.68;66.53;94165.28;5008704;28;20033;-79
2023/09/05 08:54:47;;;;;;;12.95;11.32;;;;;;;16.75;65.75;94179.72;5008454;28;20727;-78
2023/09/05 08:57:17;;;;;;;13.95;11.68;;;;;;;16.73;65.68;94162.34;5005877;28;20052;-78
2023/09/05 08:59:43;;;;;;;12.98;11.38;;;;;;;17.10;64.38;94182.56;5011035;28;20893;-78
2023/09/05 09:02:10;;;;;;;12.70;11.07;;;;;;;17.13;63.99;94170.31;5009518;28;20189;-78
2023/09/05 09:04:51;;;;;;;12.63;11.32;;;;;;;17.03;64.20;94165.44;5009776;28;20021;-78
2023/09/05 09:07:16;;;;;;;11.18;9.75;;;;;;;17.29;63.77;94178.44;5009783;28;20724;-78
2023/09/05 09:09:42;;;;;;;16.88;11.48;;;;;;;17.24;64.20;94165.25;4989237;28;20040;-78
2023/09/05 09:12:08;;;;;;;15.73;10.57;;;;;;;17.41;63.60;94170.28;5005898;28;20036;-78
2023/09/05 09:14:34;;;;;;;12.18;9.77;;;;;;;17.59;62.98;94176.88;4988810;28;20033;-78
2023/09/05 09:17:00;;;;;;;12.18;10.35;;;;;;;17.66;63.08;94171.66;4983524;28;20022;-78
2023/09/05 09:19:29;;;;;;;12.93;10.43;;;;;;;17.70;62.60;94169.81;5009628;28;20172;-77
2023/09/05 09:21:55;;;;;;;18.58;11.05;;;;;;;17.80;63.37;94161.22;4983058;28;20049;-78
2023/09/05 09:24:20;;;;;;;11.45;9.65;;;;;;;17.89;62.24;94156.41;4991097;28;20292;-78
2023/09/05 09:26:46;;;;;;;13.23;9.05;;;;;;;17.94;62.37;94169.63;5009384;28;20102;-78
2023/09/05 09:29:11;;;;;;;13.00;9.90;;;;;;;17.92;62.70;94152.25;4989718;28;20219;-77
2023/09/05 09:31:37;;;;;;;13.45;10.15;;;;;;;17.77;63.24;94161.16;5011287;28;20021;-79
2023/09/05 09:34:03;;;;;;;21.92;12.10;;;;;;;17.96;62.74;94159.31;5007207;28;20107;-78
2023/09/05 09:36:34;;;;;;;12.00;9.82;;;;;;;17.92;61.66;94153.06;4990786;28;20221;-80
2023/09/05 09:39:11;;;;;;;9.38;8.45;;;;;;;17.98;60.87;94167.81;4984828;28;20618;-79
2023/09/05 09:41:47;;;;;;;11.77;8.25;;;;;;;18.06;61.26;94158.00;5010120;28;20553;-79
2023/09/05 09:44:26;;;;;;;14.95;8.98;;;;;;;18.03;61.27;94162.19;5009461;28;20041;-79
2023/09/05 09:46:52;;;;;;;13.48;8.43;;;;;;;18.01;61.61;94161.72;5009164;28;20789;-78
2023/09/05 09:49:19;;;;;;;15.80;10.65;;;;;;;18.09;61.64;94159.22;5001326;28;20033;-79
2023/09/05 09:51:51;;;;;;;12.60;8.05;;;;;;;18.07;59.95;94159.56;5006322;28;20402;-77
2023/09/05 09:54:20;;;;;;;22.17;9.88;;;;;;;17.80;58.20;94152.38;4972593;28;20084;-78
2023/09/05 09:56:47;;;;;;;12.55;7.38;;;;;;;17.94;57.45;94148.09;4976002;28;20109;-79
2023/09/05 09:59:18;;;;;;;7.70;6.93;;;;;;;17.81;56.13;94143.94;4967312;28;20968;-78
2023/09/05 10:01:44;;;;;;;9.93;6.40;;;;;;;17.94;55.08;94150.06;4962720;28;20045;-77
2023/09/05 10:04:11;;;;;;;9.98;6.13;;;;;;;17.91;55.25;94150.69;4969899;28;20449;-78
2023/09/05 10:06:37;;;;;;;9.05;6.60;;;;;;;17.87;55.95;94145.25;4969222;28;20120;-78
2023/09/05 10:09:03;;;;;;;12.40;5.68;;;;;;;17.47;54.71;94110.53;4967464;28;20046;-77
2023/09/05 10:11:29;;;;;;;6.65;6.05;;;;;;;17.84;54.60;94127.13;4960279;28;20274;-78
2023/09/05 10:13:57;;;;;;;7.68;5.80;;;;;;;17.96;54.64;94132.41;4960922;28;20069;-78
2023/09/05 10:16:23;;;;;;;10.20;5.80;;;;;;;17.46;53.81;94108.16;4969525;28;20145;-79
2023/09/05 10:18:50;;;;;;;6.30;5.07;;;;;;;17.68;53.67;94126.38;4966011;28;20042;-77
2023/09/05 10:21:19;;;;;;;6.93;5.70;;;;;;;17.75;53.71;94136.50;4969988;28;20411;-78
2023/09/05 10:23:46;;;;;;;8.40;5.88;;;;;;;17.24;53.77;94143.75;4984889;28;20026;-78
2023/09/05 10:26:13;;;;;;;10.13;5.70;;;;;;;17.23;53.43;94137.59;4960762;28;20750;-79
2023/09/05 10:28:39;;;;;;;7.43;5.32;;;;;;;17.31;53.71;94127.78;4968838;28;20030;-78
2023/09/05 10:31:15;;;;;;;6.13;5.10;;;;;;;17.25;53.38;94139.94;4964127;28;20042;-80
2023/09/05 10:33:44;;;;;;;6.90;4.97;;;;;;;17.26;53.46;94152.25;4982702;28;20034;-77
2023/09/05 10:36:41;;;;;;;7.57;4.95;;;;;;;16.98;53.93;94152.28;4969447;28;20081;-79
2023/09/05 10:39:18;;;;;;;8.52;5.13;;;;;;;16.85;54.03;94148.09;4968860;28;20052;-76
2023/09/05 10:41:43;;;;;;;9.38;5.75;;;;;;;16.78;54.13;94159.41;4960709;28;20137;-77
2023/09/05 10:44:09;;;;;;;10.48;4.97;;;;;;;16.95;54.33;94137.63;4967379;28;20093;-78
2023/09/05 10:46:34;;;;;;;8.63;5.47;;;;;;;17.21;53.79;94147.13;4963197;28;20044;-79
2023/09/05 10:49:16;;;;;;;7.65;5.32;;;;;;;17.44;52.85;94148.09;4960937;28;20035;-79
2023/09/05 10:52:15;;;;;;;7.88;5.43;;;;;;;17.38;53.19;94154.84;4959673;28;20121;-77
2023/09/05 10:54:40;;;;;;;7.15;4.65;;;;;;;17.46;53.29;94145.81;5000057;28;20045;-79
2023/09/05 10:57:52;;;;;;;8.48;5.30;;;;;;;17.36;52.55;94154.41;4995924;28;20084;-78
2023/09/05 11:00:17;;;;;;;5.22;4.72;;;;;;;17.55;53.06;94149.88;4997333;28;20047;-77
2023/09/05 11:02:45;;;;;;;7.03;5.20;;;;;;;17.56;53.39;94139.91;4999843;28;20894;-77
2023/09/05 11:05:12;;;;;;;9.90;5.82;;;;;;;17.58;53.11;94149.19;4989393;28;20041;-78
2023/09/05 11:07:42;;;;;;;17.15;5.75;;;;;;;17.64;52.72;94135.50;5004034;28;20143;-79
2023/09/05 11:10:24;;;;;;;6.65;5.15;;;;;;;17.84;52.54;94142.47;4987049;28;20377;-78
2023/09/05 11:12:50;;;;;;;8.70;5.07;;;;;;;17.72;52.49;94148.75;4989310;28;20527;-79
2023/09/05 11:15:31;;;;;;;9.23;5.20;;;;;;;17.22;53.36;94124.47;4999096;28;20135;-79
2023/09/05 11:18:01;;;;;;;8.23;4.90;;;;;;;17.54;52.78;94123.34;4988354;28;20041;-76
2023/09/05 11:20:39;;;;;;;7.90;5.03;;;;;;;17.70;51.94;94145.59;5005833;28;20148;-76
2023/09/05 11:23:17;;;;;;;6.57;4.72;;;;;;;17.53;52.92;94141.41;4991934;28;20092;-79
2023/09/05 11:25:49;;;;;;;8.70;4.88;;;;;;;17.34;52.62;94125.19;4986591;28;20404;-77
2023/09/05 11:28:15;;;;;;;9.20;4.63;;;;;;;17.32;52.33;94134.72;4985822;28;20052;-76